Time;durP1;ratioP1;P1;durP2;ratioP2;P2;SDS_P1;SDS_P2;PMS_P1;PMS_P2;Temp;Humidity;BMP_temperature;BMP_pressure;BME280_temperature;BME280_humidity;BME280_pressure;Samples;Min_cycle;Max_cycle;Signal;HPM_P1;HPM_P2
2024/02/28 06:42:32;;;;;;;53.42;25.95;;;;;;;;;;10586364;27;20419;-80
2024/02/28 06:47:34;;;;;;;25.63;13.73;;;;;;;;;;10582380;28;20024;-80
2024/02/28 06:52:35;;;;;;;28.60;14.80;;;;;;;;;;10582838;28;20024;-80
2024/02/28 06:57:38;;;;;;;25.40;14.63;;;;;;;;;;10582144;28;20481;-81
2024/02/28 07:02:39;;;;;;;34.00;19.98;;;;;;;;;;10585784;28;20020;-81
2024/02/28 07:07:40;;;;;;;22.52;13.65;;;;;;;;;;10585560;28;20468;-80
2024/02/28 07:12:41;;;;;;;29.02;18.00;;;;;;;;;;10608068;28;20020;-79
2024/02/28 07:17:43;;;;;;;27.58;15.45;;;;;;;;;;10602981;28;20059;-81
2024/02/28 07:22:44;;;;;;;22.42;13.48;;;;;;;;;;10578673;28;20028;-80
2024/02/28 07:27:45;;;;;;;21.77;13.15;;;;;;;;;;10578597;28;20028;-80
2024/02/28 07:32:46;;;;;;;;;;;;;;;;;;10579197;28;20498;-80
2024/02/28 07:37:47;;;;;;;20.90;12.43;;;;;;;;;;10577640;28;19904;-80
2024/02/28 07:42:48;;;;;;;;;;;;;;;;;;10578350;28;20063;-80
2024/02/28 07:47:49;;;;;;;23.75;14.82;;;;;;;;;;10577689;28;20264;-80
2024/02/28 07:52:50;;;;;;;20.27;12.65;;;;;;;;;;10556559;28;20151;-80
2024/02/28 07:57:52;;;;;;;22.70;14.48;;;;;;;;;;10552668;28;20555;-80
2024/02/28 08:02:53;;;;;;;23.38;14.43;;;;;;;;;;10552266;28;20074;-80
2024/02/28 08:07:54;;;;;;;18.60;11.00;;;;;;;;;;10551154;28;20085;-80
2024/02/28 08:12:55;;;;;;;26.13;16.45;;;;;;;;;;10558892;28;20084;-79
2024/02/28 08:17:56;;;;;;;24.42;16.33;;;;;;;;;;10565302;28;20046;-79
2024/02/28 08:22:58;;;;;;;;;;;;;;;;;;10565685;28;20024;-78
2024/02/28 08:27:59;;;;;;;27.88;18.17;;;;;;;;;;10569772;28;19911;-77
2024/02/28 08:33:00;;;;;;;;;;;;;;;;;;10566292;28;20073;-79
2024/02/28 08:38:03;;;;;;;23.70;16.77;;;;;;;;;;10564525;28;19929;-79
2024/02/28 08:43:04;;;;;;;19.77;14.20;;;;;;;;;;10564937;28;20048;-80
2024/02/28 08:48:05;;;;;;;26.33;17.40;;;;;;;;;;10564945;28;20074;-80
2024/02/28 08:53:06;;;;;;;19.48;14.10;;;;;;;;;;10566514;28;20459;-79
2024/02/28 08:58:07;;;;;;;;;;;;;;;;;;10566636;28;20020;-79
2024/02/28 09:03:08;;;;;;;17.67;13.10;;;;;;;;;;10563678;28;19904;-78
2024/02/28 09:08:09;;;;;;;;;;;;;;;;;;10560419;28;20063;-80
2024/02/28 09:13:12;;;;;;;17.67;12.35;;;;;;;;;;10559374;28;19908;-80
2024/02/28 09:18:13;;;;;;;19.45;13.45;;;;;;;;;;10557693;28;20032;-79
2024/02/28 09:23:14;;;;;;;24.15;16.05;;;;;;;;;;10559386;28;20083;-80
2024/02/28 09:28:16;;;;;;;22.67;16.25;;;;;;;;;;10560916;28;20411;-81
2024/02/28 09:33:19;;;;;;;21.65;14.55;;;;;;;;;;10558220;28;20020;-80
2024/02/28 09:38:20;;;;;;;20.70;13.55;;;;;;;;;;10558024;28;20605;-81
2024/02/28 09:43:21;;;;;;;;;;;;;;;;;;10556240;28;20024;-81
2024/02/28 09:48:22;;;;;;;23.33;15.98;;;;;;;;;;10553711;28;19908;-79
2024/02/28 09:53:23;;;;;;;17.67;12.75;;;;;;;;;;10552979;28;20035;-80
2024/02/28 09:58:24;;;;;;;;;;;;;;;;;;10547057;28;20081;-81
2024/02/28 10:03:26;;;;;;;16.05;11.55;;;;;;;;;;10549881;28;20348;-81
2024/02/28 10:08:28;;;;;;;19.95;13.70;;;;;;;;;;10547585;28;20091;-80
2024/02/28 10:13:30;;;;;;;28.33;18.67;;;;;;;;;;10548456;28;20024;-79
2024/02/28 10:18:31;;;;;;;15.90;11.40;;;;;;;;;;10546098;28;20030;-81
2024/02/28 10:23:32;;;;;;;;;;;;;;;;;;10548235;28;20096;-79
2024/02/28 10:28:33;;;;;;;35.28;23.33;;;;;;;;;;10544207;28;19908;-81
2024/02/28 10:33:35;;;;;;;24.88;17.17;;;;;;;;;;10547860;28;20533;-80
2024/02/28 10:38:37;;;;;;;19.27;13.73;;;;;;;;;;10546563;28;20043;-80
2024/02/28 10:43:39;;;;;;;16.35;10.23;;;;;;;;;;10548291;28;20024;-79
2024/02/28 10:48:40;;;;;;;34.85;22.00;;;;;;;;;;10549314;28;20070;-80
2024/02/28 10:53:41;;;;;;;;;;;;;;;;;;10555313;28;20088;-79
2024/02/28 10:58:42;;;;;;;;;;;;;;;;;;10565668;28;19911;-79
2024/02/28 11:03:44;;;;;;;18.02;11.60;;;;;;;;;;10561369;28;19959;-80
2024/02/28 11:08:48;;;;;;;17.45;11.40;;;;;;;;;;10569071;28;20032;-80
2024/02/28 11:13:56;;;;;;;15.98;11.32;;;;;;;;;;10585681;28;20024;-78
2024/02/28 11:18:57;;;;;;;17.58;11.10;;;;;;;;;;10587399;28;20024;-79
2024/02/28 11:23:59;;;;;;;14.57;10.15;;;;;;;;;;10578880;28;20074;-80
2024/02/28 11:29:00;;;;;;;13.32;8.93;;;;;;;;;;10557940;28;20062;-80
2024/02/28 11:34:01;;;;;;;;;;;;;;;;;;10560441;28;20111;-80
2024/02/28 11:39:02;;;;;;;13.25;9.52;;;;;;;;;;10557765;28;19912;-79
2024/02/28 11:44:03;;;;;;;12.57;8.77;;;;;;;;;;10558725;28;20028;-79
2024/02/28 11:49:09;;;;;;;;;;;;;;;;;;10555781;28;20024;-80
2024/02/28 11:54:10;;;;;;;14.18;8.80;;;;;;;;;;10556680;28;19911;-80
2024/02/28 11:59:13;;;;;;;16.80;11.33;;;;;;;;;;10579788;22;20380;-82
2024/02/28 12:04:14;;;;;;;11.60;7.75;;;;;;;;;;10485956;28;20037;-85
2024/02/28 12:09:20;;;;;;;13.80;9.13;;;;;;;;;;10461862;28;20041;-83
2024/02/28 12:14:21;;;;;;;13.30;9.52;;;;;;;;;;10471613;28;20129;-84
2024/02/28 12:19:24;;;;;;;19.88;13.23;;;;;;;;;;10471687;28;20032;-83
2024/02/28 12:24:28;;;;;;;14.63;9.95;;;;;;;;;;10476083;28;20043;-84
2024/02/28 12:29:32;;;;;;;11.98;8.13;;;;;;;;;;10475152;28;20025;-84
2024/02/28 12:34:33;;;;;;;11.77;8.30;;;;;;;;;;10478455;28;20043;-84
2024/02/28 12:39:34;;;;;;;;;;;;;;;;;;10476446;28;20036;-86
2024/02/28 12:44:38;;;;;;;12.30;9.00;;;;;;;;;;10467755;28;19912;-85
2024/02/28 12:50:16;;;;;;;15.27;10.63;;;;;;;;;;10475152;28;20029;-85
2024/02/28 12:55:26;;;;;;;11.00;7.45;;;;;;;;;;10475502;28;20381;-84
2024/02/28 13:00:28;;;;;;;10.90;7.75;;;;;;;;;;10474262;28;20025;-84
2024/02/28 13:05:29;;;;;;;11.60;8.05;;;;;;;;;;10475803;28;20044;-84
2024/02/28 13:10:34;;;;;;;11.55;8.60;;;;;;;;;;10474082;28;20061;-86
2024/02/28 13:15:35;;;;;;;22.70;15.82;;;;;;;;;;10476802;28;20528;-85
2024/02/28 13:20:37;;;;;;;;;;;;;;;;;;10472264;28;20048;-86
2024/02/28 13:25:38;;;;;;;11.45;7.95;;;;;;;;;;10469423;28;19991;-85
2024/02/28 13:30:39;;;;;;;;;;;;;;;;;;10467145;28;20119;-86
2024/02/28 13:35:41;;;;;;;14.57;9.32;;;;;;;;;;10465012;28;19905;-86
2024/02/28 13:40:44;;;;;;;9.07;6.43;;;;;;;;;;10467389;28;20025;-85
2024/02/28 13:45:51;;;;;;;14.43;10.43;;;;;;;;;;10467168;28;20070;-85
2024/02/28 13:50:52;;;;;;;8.57;6.35;;;;;;;;;;10464565;28;20025;-84
2024/02/28 13:55:53;;;;;;;9.95;7.70;;;;;;;;;;10465944;28;20453;-85
2024/02/28 14:00:54;;;;;;;;;;;;;;;;;;10471991;28;20052;-83
2024/02/28 14:05:55;;;;;;;10.32;7.50;;;;;;;;;;10470182;28;19911;-83
2024/02/28 14:10:56;;;;;;;19.25;13.63;;;;;;;;;;10468454;28;20072;-84
2024/02/28 14:15:57;;;;;;;14.00;9.93;;;;;;;;;;10473712;28;20155;-85
2024/02/28 14:20:58;;;;;;;;;;;;;;;;;;10468409;28;20075;-83
2024/02/28 14:25:59;;;;;;;10.98;6.78;;;;;;;;;;10465921;28;19904;-85
2024/02/28 14:31:00;;;;;;;;;;;;;;;;;;10475043;28;20029;-85
2024/02/28 14:36:03;;;;;;;16.33;11.25;;;;;;;;;;10467069;28;19904;-86
2024/02/28 14:41:04;;;;;;;12.13;8.52;;;;;;;;;;10472512;28;20101;-85
2024/02/28 14:46:07;;;;;;;11.98;8.95;;;;;;;;;;10465041;28;20033;-84
2024/02/28 14:51:09;;;;;;;8.13;5.82;;;;;;;;;;10469591;28;20032;-84
2024/02/28 14:56:10;;;;;;;9.65;6.45;;;;;;;;;;10468266;28;20088;-84
2024/02/28 15:01:11;;;;;;;;;;;;;;;;;;10474460;28;20064;-83
2024/02/28 15:06:12;;;;;;;10.75;7.05;;;;;;;;;;10477080;28;19905;-84
2024/02/28 15:11:13;;;;;;;;;;;;;;;;;;10475871;28;20128;-84
2024/02/28 15:16:15;;;;;;;15.05;10.52;;;;;;;;;;10476519;28;19911;-85
2024/02/28 15:21:16;;;;;;;9.32;6.75;;;;;;;;;;10474658;28;20040;-86
2024/02/28 15:26:17;;;;;;;;;;;;;;;;;;10479758;28;20033;-84
2024/02/28 15:31:18;;;;;;;18.40;12.48;;;;;;;;;;10476871;28;19909;-83
2024/02/28 15:36:19;;;;;;;6.97;5.00;;;;;;;;;;10478339;28;20540;-85
2024/02/28 15:41:22;;;;;;;11.18;7.05;;;;;;;;;;10481962;28;20009;-84
2024/02/28 15:46:23;;;;;;;15.55;9.48;;;;;;;;;;10474577;28;20033;-84
2024/02/28 15:51:24;;;;;;;17.10;11.80;;;;;;;;;;10469781;28;20021;-84
2024/02/28 15:56:25;;;;;;;9.38;6.97;;;;;;;;;;10468120;28;20029;-86
2024/02/28 16:01:26;;;;;;;14.20;8.70;;;;;;;;;;10483149;28;20147;-83
2024/02/28 16:06:27;;;;;;;13.63;10.05;;;;;;;;;;10487203;28;20037;-84
2024/02/28 16:11:29;;;;;;;23.38;16.58;;;;;;;;;;10484407;28;20028;-82
2024/02/28 16:16:30;;;;;;;8.27;5.70;;;;;;;;;;10471319;28;20393;-79
2024/02/28 16:21:31;;;;;;;15.32;10.40;;;;;;;;;;10486221;28;20035;-83
2024/02/28 16:26:32;;;;;;;11.73;8.68;;;;;;;;;;10492901;28;20021;-84
2024/02/28 16:31:33;;;;;;;21.13;14.45;;;;;;;;;;10496895;28;20029;-83
2024/02/28 16:36:34;;;;;;;;;;;;;;;;;;10498842;28;20067;-82
2024/02/28 16:41:36;;;;;;;18.77;12.85;;;;;;;;;;10491231;28;19940;-84
2024/02/28 16:46:38;;;;;;;14.82;8.93;;;;;;;;;;10477205;28;20028;-84
2024/02/28 16:51:39;;;;;;;18.35;12.85;;;;;;;;;;10480905;28;20032;-84
2024/02/28 16:56:39;;;;;;;;;;;;;;;;;;10486120;28;20051;-84
2024/02/28 17:01:40;;;;;;;16.20;11.00;;;;;;;;;;10475461;28;19913;-84
2024/02/28 17:06:41;;;;;;;;;;;;;;;;;;10477999;28;20033;-85
2024/02/28 17:11:42;;;;;;;11.43;7.38;;;;;;;;;;10469472;28;20284;-84
2024/02/28 17:16:43;;;;;;;15.82;10.07;;;;;;;;;;10466770;28;20455;-84
2024/02/28 17:21:45;;;;;;;;;;;;;;;;;;10465871;28;20052;-84
2024/02/28 17:26:46;;;;;;;16.25;9.75;;;;;;;;;;10470448;28;19934;-85
2024/02/28 17:31:47;;;;;;;10.98;7.15;;;;;;;;;;10464854;28;20032;-86
2024/02/28 17:36:48;;;;;;;10.32;6.95;;;;;;;;;;10463617;28;20020;-86
2024/02/28 17:41:49;;;;;;;12.32;8.90;;;;;;;;;;10467525;28;20488;-86
2024/02/28 17:46:50;;;;;;;15.52;9.90;;;;;;;;;;10467435;28;20036;-86
2024/02/28 17:51:51;;;;;;;24.77;17.08;;;;;;;;;;10464619;28;20143;-86
2024/02/28 17:56:53;;;;;;;12.70;9.00;;;;;;;;;;10462795;28;20025;-86
2024/02/28 18:01:54;;;;;;;10.52;7.65;;;;;;;;;;10540574;22;20036;-83
2024/02/28 18:06:55;;;;;;;11.70;8.68;;;;;;;;;;10514545;28;20028;-84
2024/02/28 18:11:56;;;;;;;11.70;8.68;;;;;;;;;;10518478;28;20028;-80
2024/02/28 18:16:58;;;;;;;13.40;9.50;;;;;;;;;;10528217;28;20031;-80
2024/02/28 18:22:01;;;;;;;11.98;9.20;;;;;;;;;;10514677;28;20103;-81
2024/02/28 18:27:03;;;;;;;14.13;9.63;;;;;;;;;;10514360;28;20114;-81
2024/02/28 18:32:05;;;;;;;12.77;9.00;;;;;;;;;;10514023;28;20025;-81
2024/02/28 18:37:06;;;;;;;9.73;6.82;;;;;;;;;;10519640;28;20076;-82
2024/02/28 18:42:07;;;;;;;16.27;10.82;;;;;;;;;;10535730;28;20100;-80
2024/02/28 18:47:08;;;;;;;;;;;;;;;;;;10543800;28;20036;-82
2024/02/28 18:52:09;;;;;;;13.65;9.77;;;;;;;;;;10520203;28;19908;-82
2024/02/28 18:57:10;;;;;;;14.90;11.10;;;;;;;;;;10518481;28;20449;-83
2024/02/28 19:02:12;;;;;;;;;;;;;;;;;;10515787;28;20028;-81
2024/02/28 19:07:13;;;;;;;13.25;9.73;;;;;;;;;;10518625;28;19919;-82
2024/02/28 19:12:14;;;;;;;11.00;7.85;;;;;;;;;;10523116;28;20092;-82
2024/02/28 19:17:16;;;;;;;13.30;9.55;;;;;;;;;;10528668;28;20115;-82
2024/02/28 19:22:26;;;;;;;30.60;19.48;;;;;;;;;;10517172;28;20032;-82
2024/02/28 19:27:27;;;;;;;21.70;15.43;;;;;;;;;;10521283;28;20016;-82
2024/02/28 19:32:28;;;;;;;21.10;14.38;;;;;;;;;;10519653;28;20059;-82
2024/02/28 19:37:29;;;;;;;;;;;;;;;;;;10516183;28;20052;-82
2024/02/28 19:42:30;;;;;;;27.10;18.75;;;;;;;;;;10517087;28;19976;-82
2024/02/28 19:47:32;;;;;;;;;;;;;;;;;;10521877;28;20154;-82
2024/02/28 19:52:33;;;;;;;14.85;10.73;;;;;;;;;;10524509;28;19916;-82
2024/02/28 19:57:35;;;;;;;21.35;14.63;;;;;;;;;;10544898;28;20054;-82
2024/02/28 20:02:36;;;;;;;19.13;13.32;;;;;;;;;;10539963;28;20025;-82
